Time;durP1;ratioP1;P1;durP2;ratioP2;P2;SDS_P1;SDS_P2;PMS_P1;PMS_P2;Temp;Humidity;BMP_temperature;BMP_pressure;BME280_temperature;BME280_humidity;BME280_pressure;Samples;Min_cycle;Max_cycle;Signal;HPM_P1;HPM_P2
2023/06/28 00:01:15;;;;;;;8.45;3.50;;;16.40;99.90;;;;;;5060145;28;20040;-56
2023/06/28 00:03:41;;;;;;;11.30;4.30;;;16.40;99.90;;;;;;5077193;28;20182;-57
2023/06/28 00:06:07;;;;;;;9.20;3.83;;;16.40;99.90;;;;;;5054494;28;20052;-54
2023/06/28 00:08:33;;;;;;;8.52;3.85;;;16.40;99.90;;;;;;5060179;28;20451;-56
2023/06/28 00:10:59;;;;;;;10.40;4.57;;;16.40;99.90;;;;;;5060678;28;20264;-56
2023/06/28 00:14:00;;;;;;;9.93;4.60;;;16.40;99.90;;;;;;5060589;28;20048;-55
2023/06/28 00:16:26;;;;;;;7.63;3.92;;;16.40;99.90;;;;;;5045954;28;20113;-54
2023/06/28 00:18:51;;;;;;;8.13;3.20;;;16.40;99.90;;;;;;5062777;28;20036;-57
2023/06/28 00:21:17;;;;;;;7.80;3.55;;;16.40;99.90;;;;;;5065554;28;20036;-54
2023/06/28 00:23:43;;;;;;;8.85;3.78;;;16.40;99.90;;;;;;5066175;28;20028;-56
2023/06/28 00:26:09;;;;;;;6.97;3.30;;;16.40;99.90;;;;;;5046321;28;20486;-57
2023/06/28 00:28:35;;;;;;;10.80;4.70;;;16.40;99.90;;;;;;5063067;28;20040;-56
2023/06/28 00:31:01;;;;;;;7.18;3.78;;;16.30;99.90;;;;;;5064325;28;20118;-55
2023/06/28 00:33:27;;;;;;;11.73;3.97;;;16.30;99.90;;;;;;5059277;28;20043;-57
2023/06/28 00:35:52;;;;;;;13.32;5.20;;;16.30;99.90;;;;;;5062236;28;20044;-55
2023/06/28 00:38:18;;;;;;;10.25;4.38;;;16.30;99.90;;;;;;5058308;28;20514;-56
2023/06/28 00:40:44;;;;;;;10.75;4.18;;;16.30;99.90;;;;;;5066010;28;20340;-57
2023/06/28 00:43:09;;;;;;;10.02;4.50;;;16.30;99.90;;;;;;5060131;28;20044;-56
2023/06/28 00:45:35;;;;;;;9.20;3.75;;;16.30;99.90;;;;;;5083977;28;20027;-56
2023/06/28 00:48:02;;;;;;;6.30;3.25;;;16.20;99.90;;;;;;5047919;28;20506;-56
2023/06/28 00:50:28;;;;;;;11.75;3.60;;;16.10;99.90;;;;;;5058410;28;20059;-54
2023/06/28 00:52:54;;;;;;;6.47;3.45;;;16.20;99.90;;;;;;5067956;28;20040;-55
2023/06/28 00:55:21;;;;;;;7.22;3.80;;;16.20;99.90;;;;;;5074468;28;20137;-55
2023/06/28 00:57:47;;;;;;;8.52;3.92;;;16.20;99.90;;;;;;5062857;28;20449;-57
2023/06/28 01:00:13;;;;;;;11.52;4.93;;;16.20;99.90;;;;;;5046915;28;20102;-55
2023/06/28 01:02:44;;;;;;;10.13;4.20;;;16.20;99.90;;;;;;5062383;28;20040;-54
2023/06/28 01:05:13;;;;;;;11.70;4.50;;;16.10;99.90;;;;;;5083124;28;20047;-55
2023/06/28 01:07:40;;;;;;;10.20;3.83;;;16.10;99.90;;;;;;5083053;28;20097;-56
2023/06/28 01:10:07;;;;;;;7.22;3.70;;;16.10;99.90;;;;;;5084299;28;20048;-56
2023/06/28 01:12:34;;;;;;;7.07;3.65;;;16.10;99.90;;;;;;5082882;28;20387;-57
2023/06/28 01:15:00;;;;;;;8.82;3.78;;;16.20;99.90;;;;;;5066827;28;20040;-56
2023/06/28 01:17:25;;;;;;;7.60;3.72;;;16.20;99.90;;;;;;5066586;28;20052;-55
2023/06/28 01:19:54;;;;;;;9.70;4.18;;;16.20;99.90;;;;;;5067769;28;20044;-56
2023/06/28 01:22:20;;;;;;;9.45;4.30;;;16.20;99.90;;;;;;5076152;28;20516;-55
2023/06/28 01:24:46;;;;;;;7.65;4.10;;;16.20;99.90;;;;;;5068584;28;20462;-56
2023/06/28 01:27:13;;;;;;;9.73;4.68;;;16.20;99.90;;;;;;5065212;28;20075;-56
2023/06/28 01:29:41;;;;;;;8.23;4.18;;;16.10;99.90;;;;;;5067688;28;20127;-57
2023/06/28 01:32:08;;;;;;;8.48;4.20;;;16.10;99.90;;;;;;5068681;28;21037;-56
2023/06/28 01:34:33;;;;;;;7.50;4.57;;;16.00;99.90;;;;;;5061106;28;20452;-57
2023/06/28 01:37:01;;;;;;;10.93;4.63;;;16.10;99.90;;;;;;5060852;28;20036;-56
2023/06/28 01:39:30;;;;;;;5.93;3.58;;;16.10;99.90;;;;;;5064799;28;20106;-56
2023/06/28 01:41:57;;;;;;;10.73;4.50;;;16.10;99.90;;;;;;5068670;28;20040;-55
2023/06/28 01:44:23;;;;;;;11.20;4.38;;;16.10;99.90;;;;;;5075141;28;20533;-57
2023/06/28 01:46:51;;;;;;;6.72;3.75;;;16.10;99.90;;;;;;5066293;28;20621;-56
2023/06/28 01:49:17;;;;;;;10.05;3.90;;;16.20;99.90;;;;;;5048793;28;20391;-55
2023/06/28 01:51:43;;;;;;;8.25;4.13;;;16.20;99.90;;;;;;5065627;28;20058;-56
2023/06/28 01:54:09;;;;;;;7.82;3.60;;;16.20;99.90;;;;;;5079551;28;20093;-57
2023/06/28 01:56:35;;;;;;;9.98;4.25;;;16.20;99.90;;;;;;5063704;28;20466;-57
2023/06/28 01:59:01;;;;;;;7.82;2.92;;;16.30;99.90;;;;;;5060431;28;20110;-55
2023/06/28 02:01:27;;;;;;;10.75;5.45;;;16.30;99.90;;;;;;5078376;28;20054;-57
2023/06/28 02:03:52;;;;;;;5.78;2.88;;;16.30;99.90;;;;;;5056906;28;20044;-56
2023/06/28 02:06:18;;;;;;;5.22;2.67;;;16.30;99.90;;;;;;5044362;28;20086;-54
2023/06/28 02:08:44;;;;;;;5.45;2.72;;;16.30;99.90;;;;;;5078980;28;20120;-57
2023/06/28 02:11:10;;;;;;;4.93;3.10;;;16.30;99.90;;;;;;5061408;28;20043;-56
2023/06/28 02:13:35;;;;;;;6.03;2.60;;;16.30;99.90;;;;;;5049216;28;20418;-56
2023/06/28 02:16:02;;;;;;;7.68;3.67;;;16.30;99.90;;;;;;5071590;28;20094;-54
2023/06/28 02:18:31;;;;;;;5.78;2.40;;;16.30;99.90;;;;;;5066696;28;20040;-57
2023/06/28 02:20:57;;;;;;;6.00;2.97;;;16.30;99.90;;;;;;5057789;28;20119;-56
2023/06/28 02:23:22;;;;;;;7.45;2.92;;;16.30;99.90;;;;;;5070450;28;20118;-58
2023/06/28 02:25:48;;;;;;;9.23;2.85;;;16.30;99.90;;;;;;5043816;28;20139;-57
2023/06/28 02:28:14;;;;;;;7.28;2.60;;;16.40;99.90;;;;;;5062641;28;20040;-57
2023/06/28 02:30:39;;;;;;;6.45;2.33;;;16.30;99.90;;;;;;5063092;28;20047;-57
2023/06/28 02:33:05;;;;;;;4.93;2.85;;;16.30;99.90;;;;;;5063648;28;20070;-57
2023/06/28 02:35:31;;;;;;;6.55;2.80;;;16.30;99.90;;;;;;5056828;28;20048;-56
2023/06/28 02:37:57;;;;;;;5.70;2.50;;;16.30;99.90;;;;;;5059441;28;20465;-58
2023/06/28 02:40:24;;;;;;;5.13;2.92;;;16.30;99.90;;;;;;5070943;28;20036;-58
2023/06/28 02:42:50;;;;;;;3.80;2.25;;;16.30;99.90;;;;;;5076068;28;20040;-56
2023/06/28 02:45:16;;;;;;;7.47;2.70;;;16.30;99.90;;;;;;5078644;28;20040;-55
2023/06/28 02:47:42;;;;;;;5.25;2.38;;;16.30;99.90;;;;;;5078020;28;20305;-54
2023/06/28 02:50:08;;;;;;;4.28;1.90;;;16.30;99.90;;;;;;5077654;28;20513;-56
2023/06/28 02:52:34;;;;;;;5.03;2.17;;;16.30;99.90;;;;;;5063532;28;20731;-55
2023/06/28 02:54:59;;;;;;;5.28;2.15;;;16.30;99.90;;;;;;5063659;28;20417;-56
2023/06/28 02:57:26;;;;;;;3.72;1.75;;;16.30;99.90;;;;;;5048014;28;20044;-56
2023/06/28 02:59:52;;;;;;;3.22;1.70;;;16.30;99.90;;;;;;5073988;28;20072;-56
2023/06/28 03:02:18;;;;;;;5.00;1.98;;;16.30;99.90;;;;;;5047677;28;20032;-57
2023/06/28 03:04:44;;;;;;;5.80;1.80;;;16.30;99.90;;;;;;5051428;28;20036;-56
2023/06/28 03:07:14;;;;;;;4.35;2.00;;;16.30;99.90;;;;;;5044796;28;20048;-57
2023/06/28 03:09:40;;;;;;;3.90;1.83;;;16.30;99.90;;;;;;5059589;28;20052;-57
2023/06/28 03:12:06;;;;;;;3.20;1.80;;;16.30;99.90;;;;;;5081574;28;20040;-54
2023/06/28 03:14:32;;;;;;;4.90;2.00;;;16.30;99.90;;;;;;5069026;28;20054;-57
2023/06/28 03:16:57;;;;;;;5.70;1.75;;;16.30;99.90;;;;;;5064472;28;20185;-56
2023/06/28 03:19:23;;;;;;;4.15;1.73;;;16.30;99.90;;;;;;5081944;28;20093;-55
2023/06/28 03:21:49;;;;;;;3.15;1.40;;;16.30;99.90;;;;;;5082413;28;20048;-57
2023/06/28 03:24:14;;;;;;;2.33;1.50;;;16.20;99.90;;;;;;5081827;28;20044;-57
2023/06/28 03:26:40;;;;;;;3.03;1.30;;;16.20;99.90;;;;;;5081790;28;20135;-57
2023/06/28 03:29:06;;;;;;;5.45;1.50;;;16.20;99.90;;;;;;5062946;28;20032;-57
2023/06/28 03:31:31;;;;;;;4.90;1.75;;;16.30;99.90;;;;;;5063383;28;20054;-58
2023/06/28 03:33:57;;;;;;;3.03;1.50;;;16.30;99.90;;;;;;5060060;28;20048;-55
2023/06/28 03:36:24;;;;;;;5.10;1.60;;;16.30;99.90;;;;;;5065333;28;20087;-57
2023/06/28 03:38:50;;;;;;;5.20;1.85;;;16.30;99.90;;;;;;5041039;28;20117;-57
2023/06/28 03:41:16;;;;;;;3.78;1.50;;;16.30;99.90;;;;;;5064940;28;20232;-56
2023/06/28 03:43:41;;;;;;;4.28;1.85;;;16.30;99.90;;;;;;5060454;28;20364;-57
2023/06/28 03:46:07;;;;;;;5.05;1.70;;;16.20;99.90;;;;;;5065754;28;20047;-58
2023/06/28 03:48:33;;;;;;;5.57;1.90;;;16.20;99.90;;;;;;5044667;28;20044;-57
2023/06/28 03:50:58;;;;;;;3.95;1.83;;;16.20;99.90;;;;;;5060073;28;20131;-57
2023/06/28 03:53:24;;;;;;;2.88;1.88;;;16.30;99.90;;;;;;5049482;28;20044;-57
2023/06/28 03:55:50;;;;;;;3.63;1.80;;;16.30;99.90;;;;;;5060204;28;20044;-56
2023/06/28 03:58:16;;;;;;;3.95;1.90;;;16.30;99.90;;;;;;5061897;28;20830;-56
2023/06/28 04:00:42;;;;;;;4.07;2.03;;;16.30;99.90;;;;;;5058100;28;20070;-57
2023/06/28 04:03:07;;;;;;;4.82;2.53;;;16.30;99.90;;;;;;5049821;28;20039;-55
2023/06/28 04:05:33;;;;;;;3.78;2.08;;;16.30;99.90;;;;;;5065691;28;20040;-57
2023/06/28 04:07:59;;;;;;;5.53;2.30;;;16.30;99.90;;;;;;5061192;28;20078;-55
2023/06/28 04:10:25;;;;;;;5.15;2.15;;;16.30;99.90;;;;;;5045921;28;20162;-53
2023/06/28 04:12:51;;;;;;;6.68;2.22;;;16.30;99.90;;;;;;5062997;28;20048;-55
2023/06/28 04:15:17;;;;;;;4.15;2.00;;;16.30;99.90;;;;;;5067063;23;20054;-53
2023/06/28 04:17:43;;;;;;;4.68;2.10;;;16.20;99.90;;;;;;5059722;28;20037;-55
2023/06/28 04:20:09;;;;;;;2.63;1.98;;;16.30;99.90;;;;;;5058259;28;20097;-56
2023/06/28 04:22:35;;;;;;;7.00;2.20;;;16.30;99.90;;;;;;5067425;28;20490;-53
2023/06/28 04:25:00;;;;;;;4.82;2.03;;;16.30;99.90;;;;;;5048058;28;20044;-54
2023/06/28 04:27:26;;;;;;;5.10;2.17;;;16.30;99.90;;;;;;5048765;28;20047;-55
2023/06/28 04:29:52;;;;;;;4.88;1.83;;;16.30;99.90;;;;;;5064972;28;20048;-55
2023/06/28 04:32:22;;;;;;;6.60;3.38;;;16.30;99.90;;;;;;5083084;28;21081;-52
2023/06/28 04:34:49;;;;;;;7.22;2.67;;;16.40;99.90;;;;;;5067686;28;20131;-55
2023/06/28 04:37:15;;;;;;;5.13;2.58;;;16.30;99.90;;;;;;5068645;28;20056;-52
2023/06/28 04:39:43;;;;;;;5.57;2.78;;;16.30;99.90;;;;;;5066964;28;20036;-52
2023/06/28 04:42:09;;;;;;;5.30;1.88;;;16.30;99.90;;;;;;5053649;28;20494;-52
2023/06/28 04:44:36;;;;;;;5.47;2.40;;;16.30;99.90;;;;;;5068070;28;20046;-53
2023/06/28 04:47:03;;;;;;;5.07;2.63;;;16.40;99.90;;;;;;5053880;28;20039;-52
2023/06/28 04:49:30;;;;;;;5.60;2.70;;;16.40;99.90;;;;;;5068779;28;20036;-55
2023/06/28 04:51:56;;;;;;;5.47;3.03;;;16.40;99.90;;;;;;5086883;28;20119;-53
2023/06/28 04:54:22;;;;;;;7.38;3.22;;;16.40;99.90;;;;;;5063773;28;20047;-54
2023/06/28 04:56:47;;;;;;;9.60;4.28;;;16.50;99.90;;;;;;5071428;28;20036;-53
2023/06/28 04:59:13;;;;;;;6.68;3.92;;;16.50;99.90;;;;;;5053854;28;20481;-53
2023/06/28 05:01:41;;;;;;;7.03;4.03;;;16.50;99.90;;;;;;5065663;28;20046;-51
2023/06/28 05:04:07;;;;;;;8.93;3.50;;;16.50;99.90;;;;;;5088598;28;20036;-51
2023/06/28 05:06:35;;;;;;;11.07;4.68;;;16.50;99.90;;;;;;5084530;28;20047;-54
2023/06/28 05:09:02;;;;;;;11.82;4.30;;;16.50;99.90;;;;;;5064150;28;20092;-53
2023/06/28 05:11:28;;;;;;;9.05;3.80;;;16.50;99.90;;;;;;5088888;28;20032;-53
2023/06/28 05:13:53;;;;;;;9.60;4.15;;;16.60;99.90;;;;;;5084451;28;20591;-53
2023/06/28 05:16:19;;;;;;;6.28;3.50;;;16.50;99.90;;;;;;5053022;28;20032;-52
2023/06/28 05:18:46;;;;;;;7.70;3.67;;;16.50;99.90;;;;;;5066111;28;20492;-53
2023/06/28 05:21:12;;;;;;;6.90;3.58;;;16.50;99.90;;;;;;5085015;28;20066;-54
2023/06/28 05:23:40;;;;;;;9.98;4.18;;;16.50;99.90;;;;;;5067415;28;20040;-53
2023/06/28 05:26:06;;;;;;;9.55;4.55;;;16.50;99.90;;;;;;5048155;28;20043;-52
2023/06/28 05:28:32;;;;;;;6.90;4.05;;;16.50;99.90;;;;;;5082862;28;20035;-53
2023/06/28 05:30:58;;;;;;;6.28;4.55;;;16.60;99.90;;;;;;5053405;28;20040;-52
2023/06/28 05:33:24;;;;;;;8.23;5.45;;;16.60;99.90;;;;;;5070889;28;20087;-55
2023/06/28 05:35:50;;;;;;;8.77;4.93;;;16.60;99.90;;;;;;5067537;28;20098;-52
2023/06/28 05:38:15;;;;;;;8.25;4.82;;;16.60;99.90;;;;;;5083774;28;20048;-54
2023/06/28 05:40:41;;;;;;;6.10;4.80;;;16.70;99.90;;;;;;5063537;28;20055;-53
2023/06/28 05:43:07;;;;;;;8.23;4.63;;;16.70;99.90;;;;;;5054350;28;20186;-50
2023/06/28 05:45:33;;;;;;;7.55;4.68;;;16.70;99.90;;;;;;5066511;28;20032;-54
2023/06/28 05:48:01;;;;;;;8.80;5.10;;;16.80;99.90;;;;;;5051940;28;20193;-55
2023/06/28 05:50:27;;;;;;;9.80;5.07;;;16.70;99.90;;;;;;5049828;28;20040;-53
2023/06/28 05:52:53;;;;;;;10.05;5.32;;;16.70;99.90;;;;;;5062744;28;20073;-53
2023/06/28 05:55:19;;;;;;;7.50;4.38;;;16.80;99.90;;;;;;5063910;28;20040;-54
2023/06/28 05:57:45;;;;;;;10.55;4.72;;;16.70;99.90;;;;;;5086617;28;20442;-54
2023/06/28 06:00:12;;;;;;;10.27;4.65;;;16.70;99.90;;;;;;5068436;28;20487;-53
2023/06/28 06:02:37;;;;;;;8.45;4.80;;;16.70;99.90;;;;;;5049000;28;20063;-51
2023/06/28 06:05:04;;;;;;;7.13;4.57;;;16.70;99.90;;;;;;5047875;28;20068;-53
2023/06/28 06:07:34;;;;;;;10.48;5.55;;;16.70;99.90;;;;;;5068424;28;20028;-50
2023/06/28 06:10:00;;;;;;;9.25;4.95;;;16.70;99.90;;;;;;5066154;28;20059;-53
2023/06/28 06:12:25;;;;;;;7.50;4.35;;;16.70;99.90;;;;;;5059996;28;20378;-54
2023/06/28 06:14:51;;;;;;;10.65;5.90;;;16.70;99.90;;;;;;5080555;28;20036;-52
2023/06/28 06:17:18;;;;;;;8.23;5.68;;;16.70;99.90;;;;;;5067631;28;20565;-53
2023/06/28 06:19:44;;;;;;;9.65;5.68;;;16.60;99.90;;;;;;5083648;28;20456;-54
2023/06/28 06:22:09;;;;;;;12.77;6.25;;;16.60;99.90;;;;;;5067112;28;20036;-54
2023/06/28 06:24:35;;;;;;;7.90;5.50;;;16.50;99.90;;;;;;5087240;28;20043;-50
2023/06/28 06:27:02;;;;;;;10.95;5.80;;;16.50;99.90;;;;;;5063748;28;20067;-52
2023/06/28 06:29:27;;;;;;;17.45;6.15;;;16.60;99.90;;;;;;5060896;28;20040;-54
2023/06/28 06:31:53;;;;;;;9.75;5.90;;;16.60;99.90;;;;;;5063426;28;20066;-52
2023/06/28 06:34:19;;;;;;;10.95;6.40;;;16.60;99.90;;;;;;5077547;28;20028;-53
2023/06/28 06:36:44;;;;;;;9.98;6.05;;;16.60;99.90;;;;;;5065376;28;20488;-53
2023/06/28 06:39:10;;;;;;;14.82;6.03;;;16.60;99.90;;;;;;5068917;28;20044;-55
2023/06/28 06:41:36;;;;;;;10.20;6.50;;;16.60;99.90;;;;;;5068414;28;20394;-53
2023/06/28 06:44:02;;;;;;;14.35;5.50;;;16.50;99.90;;;;;;5045704;28;20032;-52
2023/06/28 06:46:27;;;;;;;11.20;6.15;;;16.60;99.90;;;;;;5040426;28;20052;-51
2023/06/28 06:48:55;;;;;;;10.60;5.55;;;16.60;99.90;;;;;;5082241;28;20473;-50
2023/06/28 06:51:21;;;;;;;9.35;5.55;;;16.50;99.90;;;;;;5081074;28;20055;-50
2023/06/28 06:53:46;;;;;;;14.00;6.57;;;16.50;99.90;;;;;;5056255;28;20037;-52
2023/06/28 06:56:12;;;;;;;10.05;6.63;;;16.50;99.90;;;;;;5066694;28;20039;-49
2023/06/28 06:58:38;;;;;;;9.63;5.38;;;16.50;99.90;;;;;;5045824;28;20036;-51
2023/06/28 07:01:04;;;;;;;9.57;5.22;;;16.50;99.90;;;;;;5074009;28;20063;-51
2023/06/28 07:03:30;;;;;;;9.00;5.93;;;16.50;99.90;;;;;;5047886;28;20130;-51
2023/06/28 07:05:55;;;;;;;13.48;6.28;;;16.60;99.90;;;;;;5067770;28;20105;-50
2023/06/28 07:08:21;;;;;;;10.70;5.00;;;16.60;99.90;;;;;;5061281;28;20047;-50
2023/06/28 07:10:47;;;;;;;8.77;5.88;;;16.70;99.90;;;;;;5066666;28;20037;-52
2023/06/28 07:13:14;;;;;;;11.23;5.60;;;16.70;99.90;;;;;;5031207;28;20083;-53
2023/06/28 07:15:40;;;;;;;9.95;6.13;;;16.70;99.90;;;;;;5049471;28;20058;-50
2023/06/28 07:18:06;;;;;;;11.48;6.13;;;16.70;99.90;;;;;;5067911;28;20048;-50
2023/06/28 07:20:31;;;;;;;9.63;5.63;;;16.70;99.90;;;;;;5051117;28;20044;-53
2023/06/28 07:22:57;;;;;;;13.30;6.65;;;16.70;99.90;;;;;;5082755;28;20032;-51
2023/06/28 07:25:23;;;;;;;12.13;5.80;;;16.80;99.90;;;;;;5044462;28;20051;-53
2023/06/28 07:27:48;;;;;;;14.32;6.05;;;16.80;99.90;;;;;;5075362;28;20067;-50
2023/06/28 07:30:14;;;;;;;8.55;6.22;;;16.80;99.90;;;;;;5063267;28;20515;-52
2023/06/28 07:32:40;;;;;;;10.98;5.78;;;16.80;99.90;;;;;;5065707;28;20090;-52
2023/06/28 07:35:06;;;;;;;11.20;6.55;;;16.80;99.90;;;;;;5060290;28;20119;-54
2023/06/28 07:37:32;;;;;;;11.18;6.93;;;16.80;99.90;;;;;;5061913;28;20454;-53
2023/06/28 07:39:58;;;;;;;13.13;6.50;;;16.80;99.90;;;;;;5065968;28;20039;-55
2023/06/28 07:42:24;;;;;;;11.02;6.43;;;16.90;99.90;;;;;;5064264;28;20051;-56
2023/06/28 07:44:50;;;;;;;12.35;6.82;;;16.90;99.90;;;;;;5082551;28;20516;-55
2023/06/28 07:47:16;;;;;;;14.25;7.63;;;16.80;99.90;;;;;;5060405;28;20572;-54
2023/06/28 07:49:42;;;;;;;10.18;7.60;;;16.90;99.90;;;;;;5064629;28;20040;-56
2023/06/28 07:52:09;;;;;;;9.95;6.43;;;16.90;99.90;;;;;;5043834;28;20503;-52
2023/06/28 07:54:34;;;;;;;15.15;7.40;;;16.90;99.90;;;;;;5061441;28;20048;-55
2023/06/28 07:57:01;;;;;;;10.75;6.38;;;16.80;99.90;;;;;;5077679;28;20040;-54
2023/06/28 07:59:26;;;;;;;12.90;7.63;;;16.90;99.90;;;;;;5083694;28;20036;-57
2023/06/28 08:01:52;;;;;;;12.98;6.38;;;16.90;99.90;;;;;;5062448;28;20497;-52
2023/06/28 08:04:20;;;;;;;11.13;6.63;;;16.80;99.90;;;;;;5038455;28;20390;-56
2023/06/28 08:06:46;;;;;;;10.40;7.78;;;16.80;99.90;;;;;;5027846;28;21658;-56
2023/06/28 08:09:13;;;;;;;10.88;7.13;;;16.80;99.90;;;;;;5063769;28;20091;-52
2023/06/28 08:11:39;;;;;;;11.10;7.03;;;16.90;99.90;;;;;;5060375;28;20247;-52
2023/06/28 08:14:05;;;;;;;11.30;7.40;;;16.90;99.90;;;;;;5063668;28;20313;-55
2023/06/28 08:16:31;;;;;;;11.15;7.20;;;16.80;99.90;;;;;;5064767;28;20051;-52
2023/06/28 08:18:57;;;;;;;13.38;7.50;;;16.90;99.90;;;;;;5067915;28;20184;-53
2023/06/28 08:21:22;;;;;;;8.90;6.25;;;17.00;99.90;;;;;;5050647;28;20073;-53
2023/06/28 08:23:48;;;;;;;12.50;7.63;;;17.00;99.90;;;;;;5049836;28;20040;-52
2023/06/28 08:26:15;;;;;;;9.82;6.93;;;17.00;99.90;;;;;;5032250;28;20036;-52
2023/06/28 08:28:41;;;;;;;13.63;7.57;;;17.10;99.90;;;;;;5051488;28;20102;-54
2023/06/28 08:31:07;;;;;;;11.20;7.25;;;17.10;99.90;;;;;;5088442;28;20036;-53
2023/06/28 08:33:32;;;;;;;11.98;7.18;;;17.10;99.90;;;;;;5062550;28;20044;-57
2023/06/28 08:35:58;;;;;;;11.25;7.18;;;17.10;99.90;;;;;;5064947;28;20675;-52
2023/06/28 08:38:24;;;;;;;13.35;8.40;;;17.20;99.90;;;;;;5080044;28;20064;-51
2023/06/28 08:40:51;;;;;;;14.90;9.18;;;17.20;99.90;;;;;;5080896;28;20036;-52
2023/06/28 08:43:19;;;;;;;13.82;9.15;;;17.20;99.90;;;;;;5087341;28;20436;-53
2023/06/28 08:45:45;;;;;;;10.32;7.63;;;17.20;99.90;;;;;;5051497;28;20036;-51
2023/06/28 08:48:15;;;;;;;14.95;9.07;;;17.20;99.90;;;;;;5067886;28;20048;-53
2023/06/28 08:50:43;;;;;;;11.07;8.68;;;17.30;99.90;;;;;;5081111;28;20410;-57
2023/06/28 08:53:13;;;;;;;12.27;9.00;;;17.30;99.90;;;;;;5055827;28;20090;-53
2023/06/28 08:55:41;;;;;;;12.48;8.98;;;17.30;99.90;;;;;;5088495;28;20028;-51
2023/06/28 08:58:08;;;;;;;17.38;9.40;;;17.30;99.90;;;;;;5070721;28;20046;-54
2023/06/28 09:00:34;;;;;;;18.42;10.30;;;17.20;99.90;;;;;;5036872;28;20044;-52
2023/06/28 09:03:01;;;;;;;11.52;8.93;;;17.30;99.90;;;;;;5067256;28;20043;-56
2023/06/28 09:05:28;;;;;;;12.80;9.60;;;17.30;99.90;;;;;;5069910;28;20047;-55
2023/06/28 09:07:56;;;;;;;14.35;9.50;;;17.40;99.90;;;;;;5064933;28;20091;-51
2023/06/28 09:10:23;;;;;;;15.40;10.30;;;17.40;99.90;;;;;;5050723;28;20119;-53
2023/06/28 09:12:50;;;;;;;14.15;10.38;;;17.40;99.90;;;;;;5081135;28;20443;-54
2023/06/28 09:15:21;;;;;;;13.57;9.73;;;17.50;99.90;;;;;;5047007;28;20111;-55
2023/06/28 09:17:47;;;;;;;11.68;9.68;;;17.40;99.90;;;;;;5044540;28;20066;-57
2023/06/28 09:20:20;;;;;;;14.13;9.80;;;17.40;99.90;;;;;;5070766;28;20534;-56
2023/06/28 09:22:59;;;;;;;11.30;8.35;;;17.50;99.90;;;;;;5048401;28;20040;-50
2023/06/28 09:25:31;;;;;;;13.68;10.32;;;17.50;99.90;;;;;;5084510;28;20531;-56
2023/06/28 09:27:59;;;;;;;11.70;9.35;;;17.60;99.90;;;;;;5079890;28;20047;-54
2023/06/28 09:30:24;;;;;;;12.75;9.90;;;17.60;99.90;;;;;;5062645;28;20054;-57
2023/06/28 09:32:51;;;;;;;13.80;10.13;;;17.60;99.90;;;;;;5054440;28;20048;-55
2023/06/28 09:35:21;;;;;;;12.25;8.70;;;17.60;99.90;;;;;;5070883;28;20490;-55
2023/06/28 09:37:55;;;;;;;11.85;9.63;;;17.60;99.90;;;;;;5082224;28;20048;-56
2023/06/28 09:40:21;;;;;;;12.10;9.88;;;17.60;99.90;;;;;;5082656;28;20039;-55
2023/06/28 09:42:48;;;;;;;13.40;9.05;;;17.50;99.90;;;;;;5066183;28;20040;-56
2023/06/28 09:45:37;;;;;;;11.98;9.93;;;17.50;99.90;;;;;;5082800;28;20525;-54
2023/06/28 09:48:04;;;;;;;11.93;9.45;;;17.60;99.90;;;;;;5078120;28;20043;-55
2023/06/28 09:50:44;;;;;;;12.90;10.55;;;17.60;99.90;;;;;;5084069;28;20036;-52
2023/06/28 09:53:12;;;;;;;11.18;9.98;;;17.60;99.90;;;;;;5052158;28;20040;-54
2023/06/28 09:55:40;;;;;;;11.18;9.70;;;17.60;99.90;;;;;;5067345;28;20213;-55
2023/06/28 09:58:13;;;;;;;11.45;10.20;;;17.60;99.90;;;;;;5062668;28;20044;-55
2023/06/28 10:00:41;;;;;;;13.27;10.32;;;17.60;99.90;;;;;;5062706;28;20044;-54
2023/06/28 10:03:09;;;;;;;11.05;9.68;;;17.60;99.90;;;;;;5059455;28;20036;-52
2023/06/28 10:05:37;;;;;;;14.73;10.63;;;17.50;99.90;;;;;;5082833;28;20083;-55
2023/06/28 10:08:11;;;;;;;12.85;10.95;;;17.60;99.90;;;;;;5075214;28;20063;-54
2023/06/28 10:10:39;;;;;;;13.30;11.45;;;17.60;99.90;;;;;;5081534;28;20076;-52
2023/06/28 10:13:11;;;;;;;13.10;10.65;;;17.70;99.90;;;;;;5085553;28;20206;-53
2023/06/28 10:16:03;;;;;;;12.73;11.25;;;17.70;99.90;;;;;;5074186;28;20093;-53
2023/06/28 10:18:29;;;;;;;13.65;11.65;;;17.70;99.90;;;;;;5051699;28;20087;-57
2023/06/28 10:20:56;;;;;;;13.80;11.15;;;17.80;99.90;;;;;;5064364;28;20101;-53
2023/06/28 10:23:23;;;;;;;14.60;10.68;;;17.90;99.90;;;;;;5067288;28;20097;-51
2023/06/28 10:25:55;;;;;;;15.68;11.93;;;17.90;99.90;;;;;;5060825;28;20044;-54
2023/06/28 10:28:21;;;;;;;12.90;11.60;;;18.00;99.90;;;;;;5078870;28;20043;-56
2023/06/28 10:30:47;;;;;;;14.10;12.60;;;18.00;99.90;;;;;;5064239;28;20039;-55
2023/06/28 10:33:18;;;;;;;13.45;11.68;;;18.10;99.90;;;;;;5050013;28;20067;-54
2023/06/28 10:35:44;;;;;;;15.63;11.68;;;18.00;99.90;;;;;;5038942;28;20040;-54
2023/06/28 10:38:10;;;;;;;16.17;11.40;;;18.00;99.90;;;;;;5060391;28;20487;-54
2023/06/28 10:40:37;;;;;;;14.75;12.40;;;18.00;99.90;;;;;;5079802;28;20067;-52
2023/06/28 10:43:03;;;;;;;13.70;12.30;;;18.00;99.90;;;;;;5060229;28;20058;-57
2023/06/28 10:45:36;;;;;;;13.75;12.15;;;17.90;99.90;;;;;;5077395;28;20486;-53
2023/06/28 10:48:03;;;;;;;15.35;13.75;;;18.00;99.90;;;;;;5063518;28;20054;-51
2023/06/28 10:50:38;;;;;;;16.33;13.93;;;18.00;99.90;;;;;;5037792;28;20559;-52
2023/06/28 10:53:04;;;;;;;16.55;14.50;;;18.00;99.90;;;;;;5062611;28;20096;-54
2023/06/28 10:55:32;;;;;;;15.18;13.50;;;18.10;99.90;;;;;;5063466;28;20044;-55
2023/06/28 10:58:10;;;;;;;16.10;13.80;;;18.00;99.90;;;;;;5060208;28;20063;-53
2023/06/28 11:00:40;;;;;;;14.32;12.40;;;18.00;99.90;;;;;;5067305;28;20150;-53
2023/06/28 11:03:07;;;;;;;15.48;13.88;;;18.00;99.90;;;;;;5068508;28;20072;-50
2023/06/28 11:05:45;;;;;;;16.42;14.45;;;18.10;99.90;;;;;;5062472;28;20046;-56
2023/06/28 11:08:15;;;;;;;14.95;12.95;;;18.00;99.90;;;;;;5044220;28;20135;-55
2023/06/28 11:10:46;;;;;;;19.67;13.38;;;18.10;99.90;;;;;;5084492;28;20036;-50
2023/06/28 11:13:14;;;;;;;12.73;11.38;;;18.10;99.90;;;;;;5062757;28;20399;-53
2023/06/28 11:15:44;;;;;;;15.18;12.38;;;18.10;99.90;;;;;;5066445;28;20044;-54
2023/06/28 11:18:20;;;;;;;15.18;13.60;;;18.20;99.90;;;;;;5064557;28;20554;-54
2023/06/28 11:20:50;;;;;;;13.85;12.38;;;18.20;99.90;;;;;;5080161;28;20572;-52
2023/06/28 11:23:38;;;;;;;16.10;14.40;;;18.20;99.90;;;;;;5079297;28;20314;-54
2023/06/28 11:26:05;;;;;;;13.93;12.45;;;18.20;99.90;;;;;;5062268;28;20069;-53
2023/06/28 11:28:34;;;;;;;15.25;13.50;;;18.20;99.90;;;;;;5062214;28;20048;-56
2023/06/28 11:31:17;;;;;;;15.70;13.77;;;18.20;99.90;;;;;;5060204;28;20043;-56
2023/06/28 11:33:43;;;;;;;13.93;12.10;;;18.20;99.90;;;;;;5061831;28;20433;-53
2023/06/28 11:36:10;;;;;;;17.08;15.27;;;18.20;99.90;;;;;;5065486;28;20043;-56
2023/06/28 11:38:36;;;;;;;17.05;15.18;;;18.20;99.90;;;;;;5045645;28;20040;-55
2023/06/28 11:41:03;;;;;;;19.90;15.75;;;18.20;99.90;;;;;;5065959;28;20437;-54
2023/06/28 11:43:28;;;;;;;17.10;15.30;;;18.20;99.90;;;;;;5062517;28;20090;-51
2023/06/28 11:45:54;;;;;;;20.23;18.02;;;18.20;99.90;;;;;;5064448;28;20044;-55
2023/06/28 11:48:20;;;;;;;23.30;19.83;;;18.20;99.90;;;;;;5045400;28;20131;-55
2023/06/28 11:50:59;;;;;;;19.55;17.38;;;18.20;99.90;;;;;;5062191;28;20080;-54
2023/06/28 11:53:28;;;;;;;21.55;19.30;;;18.20;99.90;;;;;;5081845;28;20048;-56
2023/06/28 11:55:55;;;;;;;27.23;20.10;;;18.30;99.90;;;;;;5069976;28;20252;-53
2023/06/28 11:58:30;;;;;;;24.98;21.00;;;18.30;99.90;;;;;;5057674;28;20029;-51
2023/06/28 12:00:56;;;;;;;26.67;21.15;;;18.30;99.90;;;;;;5065087;28;20437;-54
2023/06/28 12:03:37;;;;;;;25.83;22.25;;;18.30;99.90;;;;;;5084231;28;20081;-56
2023/06/28 12:06:06;;;;;;;31.00;23.33;;;18.30;99.90;;;;;;5049297;28;20039;-54
2023/06/28 12:08:33;;;;;;;29.30;24.02;;;18.30;99.90;;;;;;5076155;28;21650;-55
2023/06/28 12:11:01;;;;;;;28.35;23.23;;;18.40;99.90;;;;;;5064342;28;20050;-55
2023/06/28 12:13:28;;;;;;;30.15;25.25;;;18.40;99.90;;;;;;5053991;28;20568;-55
2023/06/28 12:15:54;;;;;;;32.80;25.65;;;18.40;99.90;;;;;;5082282;28;20044;-55
2023/06/28 12:18:33;;;;;;;32.88;26.15;;;18.40;99.90;;;;;;5049791;28;20043;-53
2023/06/28 12:21:18;;;;;;;32.47;25.38;;;18.50;99.90;;;;;;5080214;28;20067;-54
2023/06/28 12:23:44;;;;;;;36.92;27.58;;;18.50;99.90;;;;;;5058416;28;20048;-55
2023/06/28 12:26:11;;;;;;;34.83;27.35;;;18.60;99.90;;;;;;5064573;28;20210;-55
2023/06/28 12:28:36;;;;;;;32.75;25.65;;;18.60;99.90;;;;;;5079524;28;20513;-54
2023/06/28 12:31:02;;;;;;;36.80;28.35;;;18.60;99.90;;;;;;5059441;28;20040;-53
2023/06/28 12:33:28;;;;;;;35.97;27.08;;;18.60;99.90;;;;;;5074194;28;20368;-54
2023/06/28 12:35:56;;;;;;;32.97;27.20;;;18.50;99.90;;;;;;5058680;28;20366;-52
2023/06/28 12:38:23;;;;;;;34.58;27.00;;;18.70;99.90;;;;;;5065276;28;20414;-54